sensor_id;sensor_type;location;lat;lon;timestamp;pressure;altitude;pressure_sealevel;temperature;humidity
25130;BME280;13308;50.860;13.664;2022-12-20T06:55:24;97078.13;;;3.14;100.00
25130;BME280;13308;50.860;13.664;2022-12-20T06:57:50;97082.09;;;3.20;100.00
25130;BME280;13308;50.860;13.664;2022-12-20T07:00:16;97061.88;;;3.21;100.00
25130;BME280;13308;50.860;13.664;2022-12-20T07:02:41;97065.75;;;3.20;100.00
25130;BME280;13308;50.860;13.664;2022-12-20T07:05:07;97065.69;;;3.17;100.00
25130;BME280;13308;50.860;13.664;2022-12-20T07:07:32;97076.59;;;3.17;100.00
25130;BME280;13308;50.860;13.664;2022-12-20T07:09:57;97083.63;;;3.18;100.00
25130;BME280;13308;50.860;13.664;2022-12-20T07:12:23;97088.22;;;3.14;100.00
25130;BME280;13308;50.860;13.664;2022-12-20T07:14:49;97098.13;;;3.03;100.00
25130;BME280;13308;50.860;13.664;2022-12-20T07:17:14;97088.84;;;3.04;100.00
25130;BME280;13308;50.860;13.664;2022-12-20T07:19:41;97093.72;;;2.95;100.00
25130;BME280;13308;50.860;13.664;2022-12-20T07:22:06;97086.19;;;2.88;100.00
25130;BME280;13308;50.860;13.664;2022-12-20T07:24:32;97073.78;;;2.91;100.00
25130;BME280;13308;50.860;13.664;2022-12-20T07:26:58;97075.81;;;2.94;100.00
25130;BME280;13308;50.860;13.664;2022-12-20T07:29:23;97075.81;;;2.94;100.00
25130;BME280;13308;50.860;13.664;2022-12-20T07:31:50;97052.63;;;3.03;100.00
25130;BME280;13308;50.860;13.664;2022-12-20T07:34:15;97068.16;;;3.03;100.00
25130;BME280;13308;50.860;13.664;2022-12-20T07:36:40;97080.09;;;2.95;100.00
25130;BME280;13308;50.860;13.664;2022-12-20T07:39:07;97062.91;;;2.91;100.00
25130;BME280;13308;50.860;13.664;2022-12-20T07:41:32;97064.41;;;2.88;100.00
25130;BME280;13308;50.860;13.664;2022-12-20T07:43:58;97059.81;;;2.92;100.00
25130;BME280;13308;50.860;13.664;2022-12-20T07:46:23;97060.97;;;2.91;100.00
25130;BME280;13308;50.860;13.664;2022-12-20T07:48:49;97045.53;;;2.99;100.00
25130;BME280;13308;50.860;13.664;2022-12-20T07:51:35;97054.53;;;3.03;100.00
25130;BME280;13308;50.860;13.664;2022-12-20T07:54:13;97064.00;;;3.09;100.00
25130;BME280;13308;50.860;13.664;2022-12-20T07:56:45;97069.03;;;3.07;100.00
25130;BME280;13308;50.860;13.664;2022-12-20T07:59:13;97062.31;;;3.01;100.00
25130;BME280;13308;50.860;13.664;2022-12-20T08:01:42;97069.88;;;3.11;100.00
25130;BME280;13308;50.860;13.664;2022-12-20T08:04:12;97071.75;;;3.07;100.00
25130;BME280;13308;50.860;13.664;2022-12-20T08:06:39;97053.84;;;3.06;100.00
25130;BME280;13308;50.860;13.664;2022-12-20T08:09:07;97055.34;;;3.03;100.00
25130;BME280;13308;50.860;13.664;2022-12-20T08:11:35;97048.38;;;3.06;100.00
25130;BME280;13308;50.860;13.664;2022-12-20T08:14:01;97043.66;;;3.03;100.00
25130;BME280;13308;50.860;13.664;2022-12-20T08:16:28;97041.38;;;3.05;100.00
25130;BME280;13308;50.860;13.664;2022-12-20T08:18:55;97024.97;;;3.01;100.00
25130;BME280;13308;50.860;13.664;2022-12-20T08:21:20;97038.94;;;3.00;100.00
25130;BME280;13308;50.860;13.664;2022-12-20T08:23:46;97038.19;;;3.03;100.00
25130;BME280;13308;50.860;13.664;2022-12-20T08:26:11;97019.78;;;3.19;100.00
25130;BME280;13308;50.860;13.664;2022-12-20T08:28:36;97027.72;;;3.27;100.00
25130;BME280;13308;50.860;13.664;2022-12-20T08:31:04;97028.50;;;3.28;100.00
25130;BME280;13308;50.860;13.664;2022-12-20T08:33:31;97045.69;;;3.32;100.00
25130;BME280;13308;50.860;13.664;2022-12-20T08:36:01;97038.78;;;3.38;100.00
25130;BME280;13308;50.860;13.664;2022-12-20T08:38:28;97061.13;;;3.47;100.00
25130;BME280;13308;50.860;13.664;2022-12-20T08:40:53;97038.34;;;3.36;100.00
25130;BME280;13308;50.860;13.664;2022-12-20T08:43:19;97023.94;;;3.35;100.00
25130;BME280;13308;50.860;13.664;2022-12-20T08:45:44;97024.28;;;3.30;100.00
25130;BME280;13308;50.860;13.664;2022-12-20T08:48:15;97021.41;;;3.23;100.00
25130;BME280;13308;50.860;13.664;2022-12-20T08:50:41;97017.56;;;3.24;100.00
25130;BME280;13308;50.860;13.664;2022-12-20T08:53:06;97022.16;;;3.20;100.00
25130;BME280;13308;50.860;13.664;2022-12-20T08:55:32;97015.91;;;3.20;100.00
25130;BME280;13308;50.860;13.664;2022-12-20T08:57:57;97036.88;;;3.16;100.00
25130;BME280;13308;50.860;13.664;2022-12-20T09:00:22;97022.22;;;3.24;100.00
25130;BME280;13308;50.860;13.664;2022-12-20T09:02:48;97025.78;;;3.28;100.00
25130;BME280;13308;50.860;13.664;2022-12-20T09:05:15;97037.94;;;3.34;100.00
25130;BME280;13308;50.860;13.664;2022-12-20T09:07:40;97023.13;;;3.31;100.00
25130;BME280;13308;50.860;13.664;2022-12-20T09:10:06;97024.69;;;3.32;100.00
25130;BME280;13308;50.860;13.664;2022-12-20T09:12:35;97020.44;;;3.35;100.00
25130;BME280;13308;50.860;13.664;2022-12-20T09:15:01;97019.28;;;3.36;100.00
25130;BME280;13308;50.860;13.664;2022-12-20T09:17:26;97021.44;;;3.49;100.00
25130;BME280;13308;50.860;13.664;2022-12-20T09:19:52;97023.56;;;3.63;99.79
25130;BME280;13308;50.860;13.664;2022-12-20T09:22:17;97031.31;;;3.61;99.27
25130;BME280;13308;50.860;13.664;2022-12-20T09:24:43;97032.13;;;3.61;99.65
25130;BME280;13308;50.860;13.664;2022-12-20T09:27:08;97022.00;;;3.62;99.44
25130;BME280;13308;50.860;13.664;2022-12-20T09:29:33;97005.69;;;3.65;99.68
25130;BME280;13308;50.860;13.664;2022-12-20T09:31:59;97028.19;;;3.59;99.75
25130;BME280;13308;50.860;13.664;2022-12-20T09:34:25;97015.72;;;3.58;100.00
25130;BME280;13308;50.860;13.664;2022-12-20T09:36:51;97006.78;;;3.61;99.39
25130;BME280;13308;50.860;13.664;2022-12-20T09:39:16;97026.88;;;3.49;99.62
25130;BME280;13308;50.860;13.664;2022-12-20T09:41:43;97014.19;;;3.60;99.58
25130;BME280;13308;50.860;13.664;2022-12-20T09:46:55;97020.41;;;3.61;99.52
25130;BME280;13308;50.860;13.664;2022-12-20T09:49:26;97029.44;;;3.94;97.88
25130;BME280;13308;50.860;13.664;2022-12-20T09:52:13;97021.91;;;4.14;96.42
25130;BME280;13308;50.860;13.664;2022-12-20T09:55:16;97061.69;;;4.15;96.70
25130;BME280;13308;50.860;13.664;2022-12-20T10:00:21;97084.41;;;4.22;97.76
25130;BME280;13308;50.860;13.664;2022-12-20T10:02:47;97082.16;;;4.31;99.75
25130;BME280;13308;50.860;13.664;2022-12-20T10:05:26;97102.25;;;4.46;96.77
25130;BME280;13308;50.860;13.664;2022-12-20T10:11:36;97099.00;;;4.07;95.15
25130;BME280;13308;50.860;13.664;2022-12-20T10:14:24;97084.00;;;3.94;95.38
25130;BME280;13308;50.860;13.664;2022-12-20T10:16:57;97078.41;;;3.84;96.52
25130;BME280;13308;50.860;13.664;2022-12-20T10:19:41;97055.06;;;3.86;96.37
25130;BME280;13308;50.860;13.664;2022-12-20T10:22:25;97083.56;;;3.63;97.25
25130;BME280;13308;50.860;13.664;2022-12-20T10:25:17;97088.66;;;3.64;97.19
25130;BME280;13308;50.860;13.664;2022-12-20T10:27:44;97085.34;;;3.78;97.59
25130;BME280;13308;50.860;13.664;2022-12-20T10:30:15;97057.31;;;3.81;97.93
25130;BME280;13308;50.860;13.664;2022-12-20T10:32:46;97080.78;;;3.85;97.36
25130;BME280;13308;50.860;13.664;2022-12-20T10:38:09;97069.88;;;3.85;97.51
25130;BME280;13308;50.860;13.664;2022-12-20T10:40:39;97070.38;;;3.94;97.28
25130;BME280;13308;50.860;13.664;2022-12-20T10:43:05;97055.78;;;3.83;96.86
25130;BME280;13308;50.860;13.664;2022-12-20T10:45:39;97056.59;;;3.84;96.51
25130;BME280;13308;50.860;13.664;2022-12-20T10:51:27;97046.13;;;3.60;96.53
25130;BME280;13308;50.860;13.664;2022-12-20T10:53:56;97037.75;;;3.46;96.88
25130;BME280;13308;50.860;13.664;2022-12-20T10:56:25;97030.19;;;3.36;96.84
25130;BME280;13308;50.860;13.664;2022-12-20T11:01:26;97038.34;;;3.36;97.45
25130;BME280;13308;50.860;13.664;2022-12-20T11:03:58;97023.13;;;3.31;97.25
25130;BME280;13308;50.860;13.664;2022-12-20T11:09:28;97025.59;;;3.40;97.02
25130;BME280;13308;50.860;13.664;2022-12-20T11:14:39;96993.16;;;3.61;97.16
25130;BME280;13308;50.860;13.664;2022-12-20T11:17:21;96971.88;;;3.70;96.82
25130;BME280;13308;50.860;13.664;2022-12-20T11:22:57;96975.19;;;4.19;95.27
25130;BME280;13308;50.860;13.664;2022-12-20T11:37:21;96915.63;;;5.93;87.53
25130;BME280;13308;50.860;13.664;2022-12-20T11:40:15;96928.19;;;6.12;85.40
25130;BME280;13308;50.860;13.664;2022-12-20T11:48:44;96912.69;;;5.55;85.86
25130;BME280;13308;50.860;13.664;2022-12-20T11:54:30;96940.50;;;5.74;83.79
25130;BME280;13308;50.860;13.664;2022-12-20T11:59:52;96967.41;;;5.58;85.91
25130;BME280;13308;50.860;13.664;2022-12-20T12:02:37;96975.88;;;5.36;86.44
25130;BME280;13308;50.860;13.664;2022-12-20T12:05:15;96958.44;;;5.68;85.21
25130;BME280;13308;50.860;13.664;2022-12-20T12:07:44;96959.94;;;5.55;85.40
25130;BME280;13308;50.860;13.664;2022-12-20T12:10:22;96973.19;;;5.43;85.08
25130;BME280;13308;50.860;13.664;2022-12-20T12:13:06;96952.94;;;5.00;87.00
25130;BME280;13308;50.860;13.664;2022-12-20T12:16:05;96948.84;;;4.77;88.62
25130;BME280;13308;50.860;13.664;2022-12-20T12:18:33;96936.63;;;4.64;89.73
25130;BME280;13308;50.860;13.664;2022-12-20T12:21:19;96924.13;;;4.63;89.21
25130;BME280;13308;50.860;13.664;2022-12-20T12:23:59;96912.81;;;4.21;90.21
25130;BME280;13308;50.860;13.664;2022-12-20T12:26:32;96914.22;;;4.04;91.51
25130;BME280;13308;50.860;13.664;2022-12-20T12:37:25;96889.22;;;3.99;92.39
25130;BME280;13308;50.860;13.664;2022-12-20T12:45:28;96885.47;;;4.14;91.55
25130;BME280;13308;50.860;13.664;2022-12-20T12:48:01;96869.72;;;4.00;92.07
25130;BME280;13308;50.860;13.664;2022-12-20T12:50:40;96857.25;;;3.99;92.09
25130;BME280;13308;50.860;13.664;2022-12-20T12:53:12;96872.84;;;3.99;92.55
25130;BME280;13308;50.860;13.664;2022-12-20T12:55:46;96873.97;;;3.98;93.14
25130;BME280;13308;50.860;13.664;2022-12-20T13:03:15;96861.84;;;3.92;92.90
25130;BME280;13308;50.860;13.664;2022-12-20T13:05:41;96866.94;;;3.93;93.05
25130;BME280;13308;50.860;13.664;2022-12-20T13:08:16;96843.94;;;3.94;93.54
25130;BME280;13308;50.860;13.664;2022-12-20T13:13:13;96858.03;;;4.00;93.12
25130;BME280;13308;50.860;13.664;2022-12-20T13:15:46;96871.19;;;3.91;93.81
25130;BME280;13308;50.860;13.664;2022-12-20T13:20:36;96868.25;;;4.10;93.40
25130;BME280;13308;50.860;13.664;2022-12-20T13:23:14;96850.66;;;4.04;93.52
25130;BME280;13308;50.860;13.664;2022-12-20T13:25:47;96845.56;;;3.99;93.11
25130;BME280;13308;50.860;13.664;2022-12-20T13:33:45;96836.56;;;3.95;93.63
25130;BME280;13308;50.860;13.664;2022-12-20T13:43:57;96820.53;;;3.90;93.81
25130;BME280;13308;50.860;13.664;2022-12-20T13:46:46;96822.00;;;3.84;93.82
25130;BME280;13308;50.860;13.664;2022-12-20T13:49:24;96821.22;;;3.83;93.78
25130;BME280;13308;50.860;13.664;2022-12-20T13:52:06;96808.00;;;3.85;94.21
25130;BME280;13308;50.860;13.664;2022-12-20T13:54:40;96813.56;;;3.96;94.22
25130;BME280;13308;50.860;13.664;2022-12-20T13:57:06;96808.06;;;3.92;94.46
25130;BME280;13308;50.860;13.664;2022-12-20T13:59:31;96814.38;;;4.00;94.73
25130;BME280;13308;50.860;13.664;2022-12-20T14:01:59;96800.84;;;4.14;94.30
25130;BME280;13308;50.860;13.664;2022-12-20T14:04:27;96812.25;;;4.23;93.97
25130;BME280;13308;50.860;13.664;2022-12-20T14:07:03;96806.72;;;4.16;94.23
25130;BME280;13308;50.860;13.664;2022-12-20T14:09:31;96801.34;;;4.23;94.42
25130;BME280;13308;50.860;13.664;2022-12-20T14:12:04;96798.19;;;4.21;94.14
25130;BME280;13308;50.860;13.664;2022-12-20T14:14:35;96797.44;;;4.24;94.60
25130;BME280;13308;50.860;13.664;2022-12-20T14:17:24;96791.19;;;4.23;94.33
25130;BME280;13308;50.860;13.664;2022-12-20T14:25:12;96797.41;;;4.17;95.00
25130;BME280;13308;50.860;13.664;2022-12-20T14:27:39;96787.72;;;4.26;94.77
25130;BME280;13308;50.860;13.664;2022-12-20T14:30:05;96771.78;;;4.35;94.15
25130;BME280;13308;50.860;13.664;2022-12-20T14:32:31;96805.69;;;4.31;94.26
25130;BME280;13308;50.860;13.664;2022-12-20T14:34:56;96806.06;;;4.29;94.34
25130;BME280;13308;50.860;13.664;2022-12-20T14:42:36;96789.53;;;4.12;94.03
25130;BME280;13308;50.860;13.664;2022-12-20T14:47:33;96784.75;;;3.98;93.89
25130;BME280;13308;50.860;13.664;2022-12-20T14:50:02;96782.31;;;3.90;93.55
25130;BME280;13308;50.860;13.664;2022-12-20T14:52:37;96785.34;;;3.78;94.29
25130;BME280;13308;50.860;13.664;2022-12-20T14:55:19;96775.91;;;3.72;94.60
25130;BME280;13308;50.860;13.664;2022-12-20T14:57:50;96760.25;;;3.65;94.48
25130;BME280;13308;50.860;13.664;2022-12-20T15:08:31;96773.81;;;3.58;95.44
25130;BME280;13308;50.860;13.664;2022-12-20T15:13:41;96768.31;;;3.51;95.75
25130;BME280;13308;50.860;13.664;2022-12-20T15:16:15;96781.91;;;3.48;95.44
25130;BME280;13308;50.860;13.664;2022-12-20T15:18:42;96776.53;;;3.55;95.48
25130;BME280;13308;50.860;13.664;2022-12-20T15:23:55;96769.47;;;3.50;95.68
25130;BME280;13308;50.860;13.664;2022-12-20T15:26:24;96762.53;;;3.56;95.65
25130;BME280;13308;50.860;13.664;2022-12-20T15:28:50;96776.53;;;3.55;95.17
25130;BME280;13308;50.860;13.664;2022-12-20T15:31:17;96776.13;;;3.53;95.36
25130;BME280;13308;50.860;13.664;2022-12-20T15:33:44;96761.66;;;3.49;95.38
25130;BME280;13308;50.860;13.664;2022-12-20T15:36:22;96762.38;;;3.42;95.95
25130;BME280;13308;50.860;13.664;2022-12-20T15:38:49;96776.78;;;3.43;95.66
25130;BME280;13308;50.860;13.664;2022-12-20T15:41:27;96767.44;;;3.44;95.85
25130;BME280;13308;50.860;13.664;2022-12-20T15:43:55;96783.41;;;3.42;95.61
25130;BME280;13308;50.860;13.664;2022-12-20T15:46:21;96765.47;;;3.41;95.25
25130;BME280;13308;50.860;13.664;2022-12-20T15:48:47;96759.97;;;3.34;95.55
25130;BME280;13308;50.860;13.664;2022-12-20T15:51:20;96777.03;;;3.31;95.78
25130;BME280;13308;50.860;13.664;2022-12-20T15:53:48;96773.47;;;3.27;95.97
25130;BME280;13308;50.860;13.664;2022-12-20T15:56:17;96765.25;;;3.23;95.96
25130;BME280;13308;50.860;13.664;2022-12-20T15:58:44;96759.78;;;3.20;96.34
25130;BME280;13308;50.860;13.664;2022-12-20T16:01:12;96768.31;;;3.18;96.45
25130;BME280;13308;50.860;13.664;2022-12-20T16:03:40;96775.44;;;3.26;96.13
25130;BME280;13308;50.860;13.664;2022-12-20T16:06:05;96756.41;;;3.30;96.25
25130;BME280;13308;50.860;13.664;2022-12-20T16:08:30;96760.00;;;3.37;96.16
25130;BME280;13308;50.860;13.664;2022-12-20T16:10:56;96770.56;;;3.42;95.53
25130;BME280;13308;50.860;13.664;2022-12-20T16:13:23;96767.06;;;3.45;95.58
25130;BME280;13308;50.860;13.664;2022-12-20T16:15:49;96767.47;;;3.47;95.83
25130;BME280;13308;50.860;13.664;2022-12-20T16:18:15;96758.59;;;3.54;95.46
25130;BME280;13308;50.860;13.664;2022-12-20T16:20:41;96756.28;;;3.56;96.08
25130;BME280;13308;50.860;13.664;2022-12-20T16:23:20;96771.03;;;3.51;95.75
25130;BME280;13308;50.860;13.664;2022-12-20T16:25:49;96764.00;;;3.47;95.79
25130;BME280;13308;50.860;13.664;2022-12-20T16:28:15;96777.88;;;3.35;95.79
25130;BME280;13308;50.860;13.664;2022-12-20T16:30:40;96780.59;;;3.35;95.89
25130;BME280;13308;50.860;13.664;2022-12-20T16:33:06;96767.03;;;3.42;95.58
25130;BME280;13308;50.860;13.664;2022-12-20T16:35:34;96759.97;;;3.34;95.50
25130;BME280;13308;50.860;13.664;2022-12-20T16:38:03;96756.03;;;3.31;95.36
25130;BME280;13308;50.860;13.664;2022-12-20T16:40:30;96758.69;;;3.24;95.92
25130;BME280;13308;50.860;13.664;2022-12-20T16:42:58;96749.78;;;3.31;95.53
25130;BME280;13308;50.860;13.664;2022-12-20T16:45:26;96763.88;;;3.36;95.48
25130;BME280;13308;50.860;13.664;2022-12-20T16:47:52;96746.72;;;3.36;95.53
25130;BME280;13308;50.860;13.664;2022-12-20T16:50:19;96745.16;;;3.35;95.99
25130;BME280;13308;50.860;13.664;2022-12-20T16:52:45;96753.75;;;3.37;95.50
25130;BME280;13308;50.860;13.664;2022-12-20T16:55:14;96751.41;;;3.39;95.75
25130;BME280;13308;50.860;13.664;2022-12-20T16:57:40;96763.16;;;3.43;95.29
25130;BME280;13308;50.860;13.664;2022-12-20T17:00:07;96754.56;;;3.41;96.11
25130;BME280;13308;50.860;13.664;2022-12-20T17:02:34;96748.38;;;3.44;95.84
25130;BME280;13308;50.860;13.664;2022-12-20T17:05:00;96753.06;;;3.43;96.22
25130;BME280;13308;50.860;13.664;2022-12-20T17:07:26;96740.22;;;3.47;96.05
25130;BME280;13308;50.860;13.664;2022-12-20T17:09:51;96762.81;;;3.48;95.79
25130;BME280;13308;50.860;13.664;2022-12-20T17:12:20;96736.69;;;3.43;96.36
25130;BME280;13308;50.860;13.664;2022-12-20T17:14:46;96741.31;;;3.39;96.70
25130;BME280;13308;50.860;13.664;2022-12-20T17:17:12;96739.72;;;3.35;96.83
25130;BME280;13308;50.860;13.664;2022-12-20T17:19:37;96731.09;;;3.33;96.87
25130;BME280;13308;50.860;13.664;2022-12-20T17:22:04;96730.81;;;3.41;96.71
25130;BME280;13308;50.860;13.664;2022-12-20T17:24:29;96714.47;;;3.41;97.19
25130;BME280;13308;50.860;13.664;2022-12-20T17:26:54;96705.56;;;3.48;96.90
25130;BME280;13308;50.860;13.664;2022-12-20T17:29:20;96752.19;;;3.36;97.41
25130;BME280;13308;50.860;13.664;2022-12-20T17:31:46;96742.19;;;3.47;97.36
25130;BME280;13308;50.860;13.664;2022-12-20T17:34:22;96733.66;;;3.52;97.36
25130;BME280;13308;50.860;13.664;2022-12-20T17:36:49;96732.91;;;3.55;96.99
25130;BME280;13308;50.860;13.664;2022-12-20T17:39:14;96716.53;;;3.55;96.77
25130;BME280;13308;50.860;13.664;2022-12-20T17:41:41;96730.84;;;3.45;97.04
25130;BME280;13308;50.860;13.664;2022-12-20T17:44:15;96726.81;;;3.32;97.18
25130;BME280;13308;50.860;13.664;2022-12-20T17:46:41;96737.72;;;3.32;97.49
25130;BME280;13308;50.860;13.664;2022-12-20T17:49:06;96740.94;;;3.41;97.28
25130;BME280;13308;50.860;13.664;2022-12-20T17:51:32;96731.53;;;3.35;97.64
25130;BME280;13308;50.860;13.664;2022-12-20T17:53:58;96717.22;;;3.45;97.11
25130;BME280;13308;50.860;13.664;2022-12-20T17:56:27;96733.63;;;3.48;96.86
25130;BME280;13308;50.860;13.664;2022-12-20T17:58:53;96713.38;;;3.49;96.82
25130;BME280;13308;50.860;13.664;2022-12-20T18:01:24;96725.09;;;3.53;96.65
25130;BME280;13308;50.860;13.664;2022-12-20T18:03:51;96712.66;;;3.56;96.84
25130;BME280;13308;50.860;13.664;2022-12-20T18:06:17;96715.03;;;3.61;96.31
25130;BME280;13308;50.860;13.664;2022-12-20T18:08:42;96713.91;;;3.65;95.90
25130;BME280;13308;50.860;13.664;2022-12-20T18:11:11;96720.53;;;3.64;95.68
25130;BME280;13308;50.860;13.664;2022-12-20T18:13:41;96722.09;;;3.65;95.98
25130;BME280;13308;50.860;13.664;2022-12-20T18:16:07;96717.44;;;3.66;95.80
25130;BME280;13308;50.860;13.664;2022-12-20T18:18:33;96723.22;;;3.61;96.16
25130;BME280;13308;50.860;13.664;2022-12-20T18:21:03;96694.84;;;3.69;96.10
25130;BME280;13308;50.860;13.664;2022-12-20T18:23:30;96721.38;;;3.72;95.97
25130;BME280;13308;50.860;13.664;2022-12-20T18:26:18;96724.50;;;3.74;96.16
25130;BME280;13308;50.860;13.664;2022-12-20T18:28:46;96708.56;;;3.76;96.40
25130;BME280;13308;50.860;13.664;2022-12-20T18:31:17;96688.75;;;3.86;95.69
25130;BME280;13308;50.860;13.664;2022-12-20T18:33:43;96674.00;;;3.90;95.38
25130;BME280;13308;50.860;13.664;2022-12-20T18:36:09;96672.41;;;3.89;95.40
25130;BME280;13308;50.860;13.664;2022-12-20T18:38:36;96682.59;;;3.92;95.45
25130;BME280;13308;50.860;13.664;2022-12-20T18:41:04;96671.72;;;3.99;95.44
25130;BME280;13308;50.860;13.664;2022-12-20T18:43:30;96667.81;;;3.97;95.37
25130;BME280;13308;50.860;13.664;2022-12-20T18:46:08;96671.34;;;4.01;95.21
25130;BME280;13308;50.860;13.664;2022-12-20T18:48:33;96670.22;;;4.09;94.93
25130;BME280;13308;50.860;13.664;2022-12-20T18:51:17;96675.28;;;4.07;94.66
25130;BME280;13308;50.860;13.664;2022-12-20T18:53:43;96645.28;;;4.10;94.78
25130;BME280;13308;50.860;13.664;2022-12-20T18:56:12;96653.09;;;4.12;94.74
25130;BME280;13308;50.860;13.664;2022-12-20T18:58:42;96655.41;;;4.10;94.59
25130;BME280;13308;50.860;13.664;2022-12-20T19:01:14;96654.66;;;4.13;94.71
25130;BME280;13308;50.860;13.664;2022-12-20T19:03:39;96654.66;;;4.13;94.37
25130;BME280;13308;50.860;13.664;2022-12-20T19:06:06;96664.81;;;4.19;94.22
25130;BME280;13308;50.860;13.664;2022-12-20T19:08:31;96649.22;;;4.13;94.23
25130;BME280;13308;50.860;13.664;2022-12-20T19:10:59;96657.78;;;4.15;94.37
25130;BME280;13308;50.860;13.664;2022-12-20T19:13:25;96662.84;;;4.13;94.27
25130;BME280;13308;50.860;13.664;2022-12-20T19:16:05;96655.47;;;4.17;93.90
25130;BME280;13308;50.860;13.664;2022-12-20T19:18:31;96662.94;;;4.27;94.12
25130;BME280;13308;50.860;13.664;2022-12-20T19:21:10;96665.34;;;4.39;93.42
25130;BME280;13308;50.860;13.664;2022-12-20T19:23:37;96652.84;;;4.38;93.22
25130;BME280;13308;50.860;13.664;2022-12-20T19:26:06;96663.44;;;4.46;93.42
